Time;durP1;ratioP1;P1;durP2;ratioP2;P2;SDS_P1;SDS_P2;PMS_P1;PMS_P2;Temp;Humidity;BMP_temperature;BMP_pressure;BME280_temperature;BME280_humidity;BME280_pressure;Samples;Min_cycle;Max_cycle;Signal;HPM_P1;HPM_P2
2021/12/20 00:01:46;;;;;;;6.22;5.15;;;;;;;;;;5070765;28;20029;-85
2021/12/20 00:04:14;;;;;;;4.88;3.30;;;;;;;;;;5069028;28;20078;-83
2021/12/20 00:06:40;;;;;;;5.60;4.20;;;;;;;;;;5070875;28;20131;-83
2021/12/20 00:09:05;;;;;;;7.88;5.00;;;;;;;;;;5067583;28;20531;-86
2021/12/20 00:11:33;;;;;;;6.78;5.05;;;;;;;;;;5070470;28;20032;-81
2021/12/20 00:13:59;;;;;;;7.43;4.45;;;;;;;;;;5070821;28;20123;-81
2021/12/20 00:16:24;;;;;;;5.78;4.15;;;;;;;;;;5070411;28;20545;-84
2021/12/20 00:18:51;;;;;;;5.18;4.68;;;;;;;;;;5068126;28;20464;-82
2021/12/20 00:21:16;;;;;;;8.20;4.97;;;;;;;;;;5068613;28;20063;-85
2021/12/20 00:23:42;;;;;;;6.05;4.78;;;;;;;;;;5070107;28;20028;-82
2021/12/20 00:26:09;;;;;;;6.63;4.90;;;;;;;;;;5070899;28;20078;-82
2021/12/20 00:28:38;;;;;;;6.15;5.22;;;;;;;;;;5067925;28;20110;-85
2021/12/20 00:31:03;;;;;;;4.90;4.30;;;;;;;;;;5069096;28;20024;-83
2021/12/20 00:33:34;;;;;;;5.88;4.47;;;;;;;;;;5070760;28;20036;-82
2021/12/20 00:36:01;;;;;;;4.85;3.85;;;;;;;;;;5067944;28;20361;-84
2021/12/20 00:41:28;;;;;;;4.68;3.30;;;;;;;;;;5067853;28;20039;-84
2021/12/20 00:43:53;;;;;;;7.45;4.75;;;;;;;;;;5066544;28;20041;-84
2021/12/20 00:46:19;;;;;;;5.10;4.10;;;;;;;;;;5068789;28;20089;-84
2021/12/20 00:48:53;;;;;;;4.63;3.22;;;;;;;;;;5070108;28;20115;-83
2021/12/20 00:51:19;;;;;;;4.57;3.42;;;;;;;;;;5073867;28;20033;-84
2021/12/20 00:53:44;;;;;;;6.63;4.00;;;;;;;;;;5073993;28;20361;-85
2021/12/20 00:56:10;;;;;;;3.95;3.22;;;;;;;;;;5072467;28;20078;-83
2021/12/20 00:58:35;;;;;;;4.72;3.33;;;;;;;;;;5072758;28;20040;-81
2021/12/20 01:01:01;;;;;;;4.65;3.60;;;;;;;;;;5072272;28;20028;-81
2021/12/20 01:03:29;;;;;;;4.85;3.90;;;;;;;;;;5071748;28;20077;-85
2021/12/20 01:05:55;;;;;;;4.25;3.05;;;;;;;;;;5073336;28;20359;-81
2021/12/20 01:08:22;;;;;;;4.28;3.63;;;;;;;;;;5072762;28;20028;-85
2021/12/20 01:10:53;;;;;;;4.80;3.40;;;;;;;;;;5073141;28;20029;-84
2021/12/20 01:13:22;;;;;;;5.22;3.90;;;;;;;;;;5072897;28;20031;-84
2021/12/20 01:15:51;;;;;;;4.77;3.33;;;;;;;;;;5072748;28;20452;-85
2021/12/20 01:18:19;;;;;;;3.90;3.50;;;;;;;;;;5071436;28;20288;-82
2021/12/20 01:20:44;;;;;;;3.55;2.60;;;;;;;;;;5071669;28;20114;-79
2021/12/20 01:23:11;;;;;;;5.63;3.78;;;;;;;;;;5072437;28;20025;-83
2021/12/20 01:25:37;;;;;;;5.07;3.20;;;;;;;;;;5072883;28;20032;-78
2021/12/20 01:28:03;;;;;;;4.43;3.25;;;;;;;;;;5073225;28;20035;-82
2021/12/20 01:30:29;;;;;;;5.90;3.10;;;;;;;;;;5073306;28;20028;-84
2021/12/20 01:32:55;;;;;;;4.30;2.63;;;;;;;;;;5072858;28;20020;-84
2021/12/20 01:35:23;;;;;;;5.35;3.63;;;;;;;;;;5071378;28;20106;-82
2021/12/20 01:37:49;;;;;;;7.05;4.32;;;;;;;;;;5071291;28;20032;-81
2021/12/20 01:40:16;;;;;;;5.55;3.42;;;;;;;;;;5072496;28;20411;-83
2021/12/20 01:42:43;;;;;;;6.10;4.32;;;;;;;;;;5072653;28;20028;-83
2021/12/20 01:45:15;;;;;;;6.43;3.80;;;;;;;;;;5072045;28;20119;-83
2021/12/20 01:47:45;;;;;;;6.50;3.85;;;;;;;;;;5071920;28;20529;-81
2021/12/20 01:50:23;;;;;;;5.05;3.47;;;;;;;;;;5072402;28;20035;-83
2021/12/20 01:52:49;;;;;;;6.93;3.25;;;;;;;;;;5070881;28;20025;-85
2021/12/20 01:55:21;;;;;;;5.47;4.43;;;;;;;;;;5070824;28;20031;-83
2021/12/20 01:57:48;;;;;;;6.63;4.30;;;;;;;;;;5072676;28;20028;-82
2021/12/20 02:00:18;;;;;;;6.43;3.97;;;;;;;;;;5070767;28;20082;-79
2021/12/20 02:02:44;;;;;;;6.40;4.68;;;;;;;;;;5084917;28;20024;-84
2021/12/20 02:05:22;;;;;;;5.55;4.13;;;;;;;;;;5070436;28;20036;-84
2021/12/20 02:07:53;;;;;;;6.90;4.75;;;;;;;;;;5072601;28;20032;-83
2021/12/20 02:10:19;;;;;;;4.63;3.60;;;;;;;;;;5072278;28;20036;-82
2021/12/20 02:12:45;;;;;;;7.72;4.30;;;;;;;;;;5070783;28;20113;-82
2021/12/20 02:15:11;;;;;;;6.75;4.07;;;;;;;;;;5070788;28;20078;-82
2021/12/20 02:17:38;;;;;;;5.63;3.72;;;;;;;;;;5072029;28;20040;-86
2021/12/20 02:20:04;;;;;;;5.75;3.78;;;;;;;;;;5071683;28;20029;-85
2021/12/20 02:22:30;;;;;;;8.15;5.65;;;;;;;;;;5070603;28;20043;-84
2021/12/20 02:24:55;;;;;;;6.80;4.57;;;;;;;;;;5071443;28;20025;-82
2021/12/20 02:27:23;;;;;;;8.02;5.22;;;;;;;;;;5071853;28;20119;-82
2021/12/20 02:30:08;;;;;;;5.93;4.68;;;;;;;;;;5071100;28;20434;-80
2021/12/20 02:38:25;;;;;;;5.35;3.60;;;;;;;;;;5071569;28;20052;-85
2021/12/20 02:41:06;;;;;;;8.23;5.65;;;;;;;;;;5070385;28;20468;-85
2021/12/20 02:43:37;;;;;;;6.78;3.83;;;;;;;;;;5070920;28;20151;-81
2021/12/20 02:46:06;;;;;;;5.65;3.80;;;;;;;;;;5071973;28;20052;-84
2021/12/20 02:48:31;;;;;;;7.72;5.00;;;;;;;;;;5068796;28;20111;-85
2021/12/20 02:50:57;;;;;;;7.97;4.38;;;;;;;;;;5071442;28;20103;-85
2021/12/20 02:53:23;;;;;;;6.95;4.65;;;;;;;;;;5086691;28;20021;-83
2021/12/20 02:55:49;;;;;;;5.45;4.13;;;;;;;;;;5071290;28;20028;-85
2021/12/20 02:58:15;;;;;;;7.95;5.15;;;;;;;;;;5069396;28;20098;-85
2021/12/20 03:00:40;;;;;;;12.10;4.05;;;;;;;;;;5069787;28;20032;-83
2021/12/20 03:03:07;;;;;;;7.72;4.18;;;;;;;;;;5071858;28;20024;-82
2021/12/20 03:05:33;;;;;;;5.85;4.90;;;;;;;;;;5071700;28;20140;-83
2021/12/20 03:07:58;;;;;;;5.80;4.00;;;;;;;;;;5070994;28;20296;-82
2021/12/20 03:10:26;;;;;;;5.20;3.60;;;;;;;;;;5086701;28;20033;-87
2021/12/20 03:12:52;;;;;;;6.30;3.88;;;;;;;;;;5071070;28;20043;-82
2021/12/20 03:15:23;;;;;;;6.43;3.75;;;;;;;;;;5070811;28;20384;-81
2021/12/20 03:17:49;;;;;;;5.80;4.60;;;;;;;;;;5071498;28;20121;-84
2021/12/20 03:20:15;;;;;;;5.65;3.88;;;;;;;;;;5071115;28;20062;-82
2021/12/20 03:22:42;;;;;;;4.72;3.22;;;;;;;;;;5069904;28;20038;-82
2021/12/20 03:25:08;;;;;;;6.40;4.90;;;;;;;;;;5071367;28;20482;-85
2021/12/20 03:27:34;;;;;;;6.13;4.35;;;;;;;;;;5070088;28;20028;-84
2021/12/20 03:30:00;;;;;;;5.53;3.22;;;;;;;;;;5071384;28;20028;-85
2021/12/20 03:32:25;;;;;;;8.50;6.32;;;;;;;;;;5071082;28;20081;-85
2021/12/20 03:34:51;;;;;;;4.72;3.53;;;;;;;;;;5068838;28;20120;-82
2021/12/20 03:37:17;;;;;;;7.22;4.88;;;;;;;;;;5069602;28;20557;-84
2021/12/20 03:39:42;;;;;;;6.28;4.18;;;;;;;;;;5070801;28;20498;-82
2021/12/20 03:42:08;;;;;;;6.70;4.68;;;;;;;;;;5069626;28;20028;-83
2021/12/20 03:44:37;;;;;;;7.53;5.20;;;;;;;;;;5070861;28;20112;-82
2021/12/20 03:47:03;;;;;;;6.60;5.60;;;;;;;;;;5070738;28;20078;-82
2021/12/20 03:49:29;;;;;;;6.28;5.57;;;;;;;;;;5070748;28;20024;-83
2021/12/20 03:51:54;;;;;;;6.45;4.95;;;;;;;;;;5070736;28;20422;-83
2021/12/20 03:54:21;;;;;;;5.43;4.07;;;;;;;;;;5070774;28;20485;-84
2021/12/20 03:56:46;;;;;;;6.93;4.68;;;;;;;;;;5071082;28;20027;-84
2021/12/20 03:59:12;;;;;;;3.88;3.00;;;;;;;;;;5068913;28;20388;-84
2021/12/20 04:01:39;;;;;;;6.55;4.32;;;;;;;;;;5070920;28;20032;-84
2021/12/20 04:04:04;;;;;;;5.53;4.05;;;;;;;;;;5068495;28;20025;-88
2021/12/20 04:06:33;;;;;;;6.45;4.00;;;;;;;;;;5069414;28;20039;-84
2021/12/20 04:08:59;;;;;;;7.50;4.45;;;;;;;;;;5069761;28;20518;-84
2021/12/20 04:11:25;;;;;;;5.53;3.42;;;;;;;;;;5070522;28;20036;-84
2021/12/20 04:13:50;;;;;;;6.68;3.92;;;;;;;;;;5069202;28;20016;-82
2021/12/20 04:16:16;;;;;;;5.55;3.83;;;;;;;;;;5069002;28;20115;-83
2021/12/20 04:18:41;;;;;;;6.43;3.88;;;;;;;;;;5070745;28;20024;-85
2021/12/20 04:21:07;;;;;;;3.30;2.65;;;;;;;;;;5068866;28;20139;-85
2021/12/20 04:23:32;;;;;;;6.63;3.22;;;;;;;;;;5070342;28;20366;-83
2021/12/20 04:25:58;;;;;;;5.70;3.80;;;;;;;;;;5072907;28;20036;-82
2021/12/20 04:28:24;;;;;;;8.35;3.33;;;;;;;;;;5074441;28;20047;-80
2021/12/20 04:30:49;;;;;;;4.70;3.20;;;;;;;;;;5074081;28;20365;-81
2021/12/20 04:33:15;;;;;;;4.55;3.58;;;;;;;;;;5073532;28;20103;-84
2021/12/20 04:35:40;;;;;;;5.65;4.20;;;;;;;;;;5074433;28;20020;-84
2021/12/20 04:38:09;;;;;;;4.20;3.25;;;;;;;;;;5072699;28;20549;-82
2021/12/20 04:40:35;;;;;;;4.57;3.00;;;;;;;;;;5072703;28;20111;-83
2021/12/20 04:43:01;;;;;;;3.92;3.03;;;;;;;;;;5072189;28;20574;-85
2021/12/20 04:45:28;;;;;;;4.70;3.45;;;;;;;;;;5073490;28;20028;-82
2021/12/20 04:47:54;;;;;;;6.10;4.53;;;;;;;;;;5072212;28;20155;-82
2021/12/20 04:50:21;;;;;;;6.40;4.30;;;;;;;;;;5073215;28;20443;-82
2021/12/20 04:52:47;;;;;;;5.15;3.80;;;;;;;;;;5073326;28;20090;-82
2021/12/20 04:55:13;;;;;;;4.50;3.55;;;;;;;;;;5073451;28;20485;-81
2021/12/20 04:57:40;;;;;;;6.40;3.97;;;;;;;;;;5073344;28;20044;-81
2021/12/20 05:00:11;;;;;;;6.45;4.53;;;;;;;;;;5072745;28;20039;-86
2021/12/20 05:02:36;;;;;;;6.88;3.90;;;;;;;;;;5073918;28;20439;-85
2021/12/20 05:05:03;;;;;;;5.28;4.10;;;;;;;;;;5072458;28;20111;-83
2021/12/20 05:07:28;;;;;;;4.78;2.83;;;;;;;;;;5071985;28;20338;-86
2021/12/20 05:09:59;;;;;;;5.25;3.97;;;;;;;;;;5071463;28;20030;-83
2021/12/20 05:12:25;;;;;;;5.97;4.00;;;;;;;;;;5073569;28;20531;-82
2021/12/20 05:14:50;;;;;;;4.53;3.70;;;;;;;;;;5073679;28;20116;-83
2021/12/20 05:17:16;;;;;;;8.07;4.35;;;;;;;;;;5067952;28;20028;-82
2021/12/20 05:19:42;;;;;;;4.82;3.25;;;;;;;;;;5071282;28;20103;-80
2021/12/20 05:22:09;;;;;;;5.85;4.68;;;;;;;;;;5073191;28;20437;-82
2021/12/20 05:24:34;;;;;;;5.82;3.95;;;;;;;;;;5068121;28;20482;-83
2021/12/20 05:27:00;;;;;;;6.32;3.90;;;;;;;;;;5071738;28;20120;-83
2021/12/20 05:29:25;;;;;;;6.90;3.67;;;;;;;;;;5069644;28;20025;-82
2021/12/20 05:31:52;;;;;;;4.20;2.85;;;;;;;;;;5064451;28;20035;-85
2021/12/20 05:34:18;;;;;;;4.40;2.85;;;;;;;;;;5074174;28;20025;-86
2021/12/20 05:36:43;;;;;;;3.95;2.78;;;;;;;;;;5066521;28;20086;-83
2021/12/20 05:39:09;;;;;;;5.63;3.70;;;;;;;;;;5068822;28;20043;-82
2021/12/20 05:41:34;;;;;;;4.30;3.00;;;;;;;;;;5072962;28;20115;-85
2021/12/20 05:44:00;;;;;;;4.60;3.40;;;;;;;;;;5069654;28;20024;-83
2021/12/20 05:46:25;;;;;;;4.78;3.10;;;;;;;;;;5065634;28;20373;-84
2021/12/20 05:48:51;;;;;;;4.20;2.90;;;;;;;;;;5061028;28;20021;-84
2021/12/20 05:51:16;;;;;;;6.10;4.35;;;;;;;;;;5059033;28;20063;-84
2021/12/20 05:53:42;;;;;;;4.70;3.38;;;;;;;;;;5058951;28;20090;-81
2021/12/20 05:56:07;;;;;;;6.60;3.97;;;;;;;;;;5067865;28;20472;-82
2021/12/20 05:58:33;;;;;;;4.32;3.03;;;;;;;;;;5080340;28;20660;-85
2021/12/20 06:00:59;;;;;;;3.72;3.13;;;;;;;;;;5085367;28;20388;-80
2021/12/20 06:03:24;;;;;;;5.38;3.97;;;;;;;;;;5071488;28;20468;-79
2021/12/20 06:05:50;;;;;;;5.30;3.58;;;;;;;;;;5072679;28;20036;-84
2021/12/20 06:08:16;;;;;;;5.28;3.15;;;;;;;;;;5070842;28;20074;-80
2021/12/20 06:10:41;;;;;;;11.07;3.08;;;;;;;;;;5072250;28;20056;-81
2021/12/20 06:13:07;;;;;;;4.28;3.45;;;;;;;;;;5066422;28;20059;-79
2021/12/20 06:15:32;;;;;;;4.95;2.88;;;;;;;;;;5072380;28;20380;-81
2021/12/20 06:17:58;;;;;;;3.08;2.45;;;;;;;;;;5072827;28;20039;-82
2021/12/20 06:20:24;;;;;;;5.40;2.60;;;;;;;;;;5070559;28;20048;-79
2021/12/20 06:22:51;;;;;;;3.58;3.08;;;;;;;;;;5065094;28;20095;-80
2021/12/20 06:25:17;;;;;;;2.30;1.90;;;;;;;;;;5070912;28;20414;-79
2021/12/20 06:27:43;;;;;;;8.38;2.13;;;;;;;;;;5072601;28;20035;-81
2021/12/20 06:30:10;;;;;;;3.75;2.58;;;;;;;;;;5072486;28;20020;-80
2021/12/20 06:32:39;;;;;;;15.63;3.25;;;;;;;;;;5071752;28;20024;-82
2021/12/20 06:35:06;;;;;;;3.22;2.55;;;;;;;;;;5070312;28;20020;-82
2021/12/20 06:37:32;;;;;;;2.38;1.58;;;;;;;;;;5072206;28;20035;-82
2021/12/20 06:39:58;;;;;;;10.07;3.42;;;;;;;;;;5071335;28;20060;-81
2021/12/20 06:42:24;;;;;;;3.20;2.33;;;;;;;;;;5070185;28;20505;-82
2021/12/20 06:44:50;;;;;;;2.95;2.30;;;;;;;;;;5072190;28;20107;-80
2021/12/20 06:47:16;;;;;;;5.38;2.80;;;;;;;;;;5071629;28;20051;-82
2021/12/20 06:49:42;;;;;;;3.60;2.40;;;;;;;;;;5071311;28;20025;-82
2021/12/20 06:52:08;;;;;;;9.13;2.47;;;;;;;;;;5068985;28;20040;-82
2021/12/20 06:54:33;;;;;;;2.58;2.03;;;;;;;;;;5071468;28;20020;-81
2021/12/20 06:56:59;;;;;;;3.38;2.70;;;;;;;;;;5070081;28;20162;-81
2021/12/20 06:59:24;;;;;;;3.35;1.92;;;;;;;;;;5069846;28;20033;-81
2021/12/20 07:01:50;;;;;;;2.28;1.45;;;;;;;;;;5071959;28;20033;-82
2021/12/20 07:04:16;;;;;;;2.78;2.15;;;;;;;;;;5071766;28;20082;-81
2021/12/20 07:06:42;;;;;;;3.45;1.85;;;;;;;;;;5071636;28;20063;-83
2021/12/20 07:09:08;;;;;;;2.63;2.30;;;;;;;;;;5070092;28;20035;-81
2021/12/20 07:11:34;;;;;;;3.55;2.10;;;;;;;;;;5071851;28;20031;-81
2021/12/20 07:14:00;;;;;;;3.72;2.47;;;;;;;;;;5070508;28;20028;-82
2021/12/20 07:16:25;;;;;;;5.18;2.78;;;;;;;;;;5070275;28;20044;-81
2021/12/20 07:18:51;;;;;;;13.20;2.90;;;;;;;;;;5070538;28;20033;-82
2021/12/20 07:21:18;;;;;;;4.57;2.42;;;;;;;;;;5085981;28;20059;-81
2021/12/20 07:23:43;;;;;;;4.70;3.08;;;;;;;;;;5071324;28;20468;-80
2021/12/20 07:26:11;;;;;;;3.63;2.63;;;;;;;;;;5071613;28;20169;-80
2021/12/20 07:28:40;;;;;;;10.48;2.53;;;;;;;;;;5071327;28;20411;-79
2021/12/20 07:31:06;;;;;;;4.22;1.98;;;;;;;;;;5071234;28;20028;-81
2021/12/20 07:33:31;;;;;;;3.25;1.88;;;;;;;;;;5070715;28;20051;-81
2021/12/20 07:35:57;;;;;;;4.22;2.22;;;;;;;;;;5071481;28;20028;-79
2021/12/20 07:38:22;;;;;;;4.88;2.58;;;;;;;;;;5071312;28;20361;-84
2021/12/20 07:40:50;;;;;;;4.90;2.70;;;;;;;;;;5070993;28;20036;-81
2021/12/20 07:43:17;;;;;;;2.13;1.60;;;;;;;;;;5070974;28;20028;-78
2021/12/20 07:45:47;;;;;;;3.72;1.90;;;;;;;;;;5068237;28;20510;-80
2021/12/20 07:48:13;;;;;;;2.65;2.25;;;;;;;;;;5070001;28;20052;-80
2021/12/20 07:50:39;;;;;;;3.28;2.47;;;;;;;;;;5070901;28;20090;-80
2021/12/20 07:53:04;;;;;;;3.28;2.13;;;;;;;;;;5069800;28;20032;-81
2021/12/20 07:55:30;;;;;;;7.78;3.10;;;;;;;;;;5071164;28;20115;-80
2021/12/20 07:57:56;;;;;;;2.25;1.80;;;;;;;;;;5069386;28;20112;-79
2021/12/20 08:00:21;;;;;;;3.20;1.75;;;;;;;;;;5071007;28;20036;-80
2021/12/20 08:02:47;;;;;;;2.25;1.70;;;;;;;;;;5071190;28;20020;-80
2021/12/20 08:05:14;;;;;;;1.98;1.40;;;;;;;;;;5071055;28;20032;-79
2021/12/20 08:07:40;;;;;;;2.80;1.65;;;;;;;;;;5070758;28;20115;-79
2021/12/20 08:10:07;;;;;;;3.85;2.83;;;;;;;;;;5071244;28;20028;-80
2021/12/20 08:12:33;;;;;;;3.25;2.28;;;;;;;;;;5071137;28;20029;-79
2021/12/20 08:14:58;;;;;;;2.40;2.05;;;;;;;;;;5070695;28;20426;-79
2021/12/20 08:17:24;;;;;;;3.17;2.35;;;;;;;;;;5065916;28;20495;-79
2021/12/20 08:19:49;;;;;;;2.42;1.52;;;;;;;;;;5079804;28;20020;-78
2021/12/20 08:22:15;;;;;;;2.95;2.33;;;;;;;;;;5070712;28;20049;-80
2021/12/20 08:24:40;;;;;;;5.93;2.80;;;;;;;;;;5069205;28;20040;-78
2021/12/20 08:27:06;;;;;;;3.20;2.20;;;;;;;;;;5070682;28;20500;-78
2021/12/20 08:29:31;;;;;;;2.55;1.80;;;;;;;;;;5070236;28;20020;-80
2021/12/20 08:32:01;;;;;;;3.42;2.33;;;;;;;;;;5068647;28;20029;-81
2021/12/20 08:34:28;;;;;;;4.03;1.95;;;;;;;;;;5069119;28;20099;-78
2021/12/20 08:36:55;;;;;;;2.05;1.70;;;;;;;;;;5062139;28;20484;-79
2021/12/20 08:39:21;;;;;;;4.45;3.03;;;;;;;;;;5061148;28;20036;-79
2021/12/20 08:41:46;;;;;;;3.20;2.20;;;;;;;;;;5064321;28;20116;-79
2021/12/20 08:44:12;;;;;;;2.80;1.55;;;;;;;;;;5070459;28;20407;-79
2021/12/20 08:46:38;;;;;;;2.40;1.88;;;;;;;;;;5070544;28;20029;-79
2021/12/20 08:49:04;;;;;;;3.30;1.80;;;;;;;;;;5069170;28;20038;-79
2021/12/20 08:51:30;;;;;;;3.72;2.05;;;;;;;;;;5069816;28;20036;-79
2021/12/20 08:53:56;;;;;;;2.42;2.00;;;;;;;;;;5070710;28;20030;-80
2021/12/20 08:56:21;;;;;;;4.32;2.28;;;;;;;;;;5069441;28;20093;-80
2021/12/20 08:58:47;;;;;;;3.38;2.13;;;;;;;;;;5070283;28;20056;-79
2021/12/20 09:01:14;;;;;;;1.98;1.73;;;;;;;;;;5069909;28;20434;-78
2021/12/20 09:03:39;;;;;;;2.83;2.08;;;;;;;;;;5069291;28;20032;-79
2021/12/20 09:06:05;;;;;;;4.32;2.42;;;;;;;;;;5070398;28;20069;-80
2021/12/20 09:08:31;;;;;;;2.72;1.38;;;;;;;;;;5070513;28;20029;-78
2021/12/20 09:10:57;;;;;;;2.20;1.40;;;;;;;;;;5072152;28;20105;-79
2021/12/20 09:13:22;;;;;;;5.93;2.50;;;;;;;;;;5072651;28;20039;-79
2021/12/20 09:15:48;;;;;;;3.10;1.95;;;;;;;;;;5073685;28;20103;-79
2021/12/20 09:18:14;;;;;;;2.17;1.65;;;;;;;;;;5070889;28;20105;-79
2021/12/20 09:20:40;;;;;;;2.00;1.58;;;;;;;;;;5070704;28;20096;-82
2021/12/20 09:23:08;;;;;;;1.70;1.40;;;;;;;;;;5069728;28;20039;-79
2021/12/20 09:25:38;;;;;;;2.33;1.80;;;;;;;;;;5072250;28;20024;-79
2021/12/20 09:28:08;;;;;;;3.13;1.85;;;;;;;;;;5072647;28;20028;-80
2021/12/20 09:30:34;;;;;;;2.65;2.30;;;;;;;;;;5073620;28;20035;-80
2021/12/20 09:32:59;;;;;;;4.72;2.55;;;;;;;;;;5072299;28;20380;-81
2021/12/20 09:35:25;;;;;;;3.42;2.33;;;;;;;;;;5068190;28;20055;-81
2021/12/20 09:37:51;;;;;;;3.40;2.17;;;;;;;;;;5072180;28;20032;-82
2021/12/20 09:40:37;;;;;;;3.58;2.10;;;;;;;;;;5073255;28;20036;-81
2021/12/20 09:43:09;;;;;;;4.63;2.50;;;;;;;;;;5073060;28;20024;-79
2021/12/20 09:45:35;;;;;;;3.00;2.33;;;;;;;;;;5071828;28;20033;-81
2021/12/20 09:48:00;;;;;;;4.13;2.55;;;;;;;;;;5073524;28;20090;-80
2021/12/20 09:50:26;;;;;;;2.58;1.83;;;;;;;;;;5088640;28;20028;-81
2021/12/20 09:52:53;;;;;;;6.55;3.25;;;;;;;;;;5070804;28;20036;-80
2021/12/20 09:55:19;;;;;;;3.47;2.30;;;;;;;;;;5073172;28;20020;-82
2021/12/20 09:57:47;;;;;;;3.15;2.42;;;;;;;;;;5073294;28;20036;-80
2021/12/20 10:00:15;;;;;;;2.45;1.80;;;;;;;;;;5071757;28;20074;-79
2021/12/20 10:02:46;;;;;;;1.92;1.73;;;;;;;;;;5081553;28;20115;-80
2021/12/20 10:05:13;;;;;;;3.60;2.25;;;;;;;;;;5067489;28;20108;-80
2021/12/20 10:07:41;;;;;;;2.92;2.30;;;;;;;;;;5072327;28;20024;-82
2021/12/20 10:10:09;;;;;;;4.35;2.83;;;;;;;;;;5064941;28;20020;-81
2021/12/20 10:12:49;;;;;;;4.30;2.70;;;;;;;;;;5072572;28;20036;-82
2021/12/20 10:15:15;;;;;;;5.15;3.38;;;;;;;;;;5073106;28;20042;-82
2021/12/20 10:17:58;;;;;;;3.38;2.42;;;;;;;;;;5072564;28;20115;-81
2021/12/20 10:20:27;;;;;;;3.13;2.28;;;;;;;;;;5071708;28;20044;-83
2021/12/20 10:23:06;;;;;;;3.10;1.98;;;;;;;;;;5087836;28;20029;-83
2021/12/20 10:25:31;;;;;;;4.03;2.60;;;;;;;;;;5073162;28;20033;-79
2021/12/20 10:28:12;;;;;;;3.70;2.42;;;;;;;;;;5072044;28;20361;-79
2021/12/20 10:30:43;;;;;;;4.82;3.08;;;;;;;;;;5071718;28;20113;-81
2021/12/20 10:33:16;;;;;;;3.20;2.20;;;;;;;;;;5070138;28;20103;-80
2021/12/20 10:35:53;;;;;;;4.00;2.63;;;;;;;;;;5070615;28;20024;-81
2021/12/20 10:38:26;;;;;;;3.78;2.30;;;;;;;;;;5071476;28;20046;-81
2021/12/20 10:40:56;;;;;;;3.80;2.85;;;;;;;;;;5072323;28;20027;-79
2021/12/20 10:43:23;;;;;;;;;;;;;;;;;;5072939;28;20052;-80
2021/12/20 10:45:55;;;;;;;3.03;1.95;;;;;;;;;;5071783;28;20337;-78
2021/12/20 10:48:20;;;;;;;5.65;3.50;;;;;;;;;;5072166;28;20025;-78
2021/12/20 10:50:46;;;;;;;3.00;2.05;;;;;;;;;;5071859;28;20032;-79
2021/12/20 10:53:16;;;;;;;2.65;1.80;;;;;;;;;;5071070;28;20020;-79
2021/12/20 10:55:43;;;;;;;;;;;;;;;;;;5072005;28;20555;-80
2021/12/20 10:58:19;;;;;;;2.47;1.75;;;;;;;;;;5070428;28;19912;-79
2021/12/20 11:01:05;;;;;;;2.28;2.00;;;;;;;;;;5071994;28;20380;-82
2021/12/20 11:03:39;;;;;;;2.67;2.00;;;;;;;;;;5071399;28;20073;-79
2021/12/20 11:06:26;;;;;;;2.35;1.92;;;;;;;;;;5071427;28;20052;-79
2021/12/20 11:09:05;;;;;;;1.98;1.40;;;;;;;;;;5086694;28;20017;-79
2021/12/20 11:11:35;;;;;;;2.67;1.95;;;;;;;;;;5072017;28;20024;-79
2021/12/20 11:14:02;;;;;;;2.72;2.20;;;;;;;;;;5071568;28;20475;-80
2021/12/20 11:16:41;;;;;;;2.30;1.58;;;;;;;;;;5071089;28;20025;-79
2021/12/20 11:19:10;;;;;;;2.40;1.70;;;;;;;;;;5070621;28;20077;-80
2021/12/20 11:21:40;;;;;;;2.22;1.35;;;;;;;;;;5071837;28;20036;-79
2021/12/20 11:24:43;;;;;;;2.88;2.10;;;;;;;;;;5071809;28;20043;-81
2021/12/20 11:27:15;;;;;;;2.35;2.00;;;;;;;;;;5066804;28;20040;-78
2021/12/20 11:29:41;;;;;;;2.58;1.60;;;;;;;;;;5069796;28;20024;-81
2021/12/20 11:32:08;;;;;;;2.75;1.80;;;;;;;;;;5067882;28;20025;-79
2021/12/20 11:34:34;;;;;;;4.68;2.40;;;;;;;;;;5065808;28;20070;-80
2021/12/20 11:37:00;;;;;;;2.88;2.30;;;;;;;;;;5069873;28;20063;-81
2021/12/20 11:39:26;;;;;;;2.63;1.90;;;;;;;;;;5071434;28;20052;-80
2021/12/20 11:41:52;;;;;;;2.42;1.90;;;;;;;;;;5069225;28;20063;-79
2021/12/20 11:44:21;;;;;;;3.95;2.58;;;;;;;;;;5071267;28;20124;-78
2021/12/20 11:46:58;;;;;;;2.40;1.97;;;;;;;;;;5070885;28;20464;-78
2021/12/20 11:49:26;;;;;;;1.45;1.20;;;;;;;;;;5067441;28;20056;-78
2021/12/20 11:52:06;;;;;;;1.63;1.40;;;;;;;;;;5070480;28;20032;-79
2021/12/20 11:54:45;;;;;;;3.40;1.85;;;;;;;;;;5071452;28;20016;-79
2021/12/20 11:57:33;;;;;;;2.30;1.67;;;;;;;;;;5071213;28;20472;-79
2021/12/20 12:00:18;;;;;;;2.95;2.05;;;;;;;;;;5067655;28;20021;-79
2021/12/20 12:02:45;;;;;;;1.55;1.30;;;;;;;;;;5068042;28;20025;-80
2021/12/20 12:05:15;;;;;;;2.13;1.45;;;;;;;;;;5070854;28;20078;-80
2021/12/20 12:07:41;;;;;;;2.45;1.80;;;;;;;;;;5071136;28;20024;-79
2021/12/20 12:10:17;;;;;;;4.35;2.28;;;;;;;;;;5069717;28;20031;-79
2021/12/20 12:12:46;;;;;;;5.72;2.22;;;;;;;;;;5070002;28;20388;-79
2021/12/20 12:15:20;;;;;;;2.40;1.98;;;;;;;;;;5060680;28;20465;-80
2021/12/20 12:17:50;;;;;;;2.90;1.92;;;;;;;;;;5071146;28;20063;-79
2021/12/20 12:20:38;;;;;;;4.20;2.47;;;;;;;;;;5071198;28;20028;-79
2021/12/20 12:23:22;;;;;;;3.53;2.20;;;;;;;;;;5069660;28;20035;-80
2021/12/20 12:25:49;;;;;;;3.58;2.25;;;;;;;;;;5070657;28;20024;-80
2021/12/20 12:28:17;;;;;;;3.70;2.38;;;;;;;;;;5068952;28;20032;-81
2021/12/20 12:30:54;;;;;;;3.38;1.75;;;;;;;;;;5070943;28;20489;-79
2021/12/20 12:33:19;;;;;;;3.92;2.55;;;;;;;;;;5071211;28;20104;-81
2021/12/20 12:35:52;;;;;;;4.72;3.25;;;;;;;;;;5070646;28;20115;-81
2021/12/20 12:38:32;;;;;;;3.55;2.70;;;;;;;;;;5066336;28;20085;-80
2021/12/20 12:41:09;;;;;;;1.92;1.50;;;;;;;;;;5065880;28;20059;-80
2021/12/20 12:43:54;;;;;;;2.13;1.50;;;;;;;;;;5068941;28;20151;-79
2021/12/20 12:46:53;;;;;;;2.72;1.50;;;;;;;;;;5074098;28;20031;-79
2021/12/20 12:49:19;;;;;;;2.90;2.60;;;;;;;;;;5082526;28;20117;-79
2021/12/20 12:51:45;;;;;;;1.15;0.80;;;;;;;;;;5073123;28;20301;-80
2021/12/20 12:54:33;;;;;;;2.80;1.92;;;;;;;;;;5073333;28;20025;-79
2021/12/20 12:57:07;;;;;;;3.60;2.22;;;;;;;;;;5074907;28;20379;-79
2021/12/20 12:59:33;;;;;;;3.80;2.55;;;;;;;;;;5072768;28;20123;-80
2021/12/20 13:02:11;;;;;;;2.15;1.48;;;;;;;;;;5069368;28;20104;-82
2021/12/20 13:04:47;;;;;;;2.83;2.05;;;;;;;;;;5072550;28;20348;-80
2021/12/20 13:07:27;;;;;;;2.60;1.63;;;;;;;;;;5074199;28;20031;-79
2021/12/20 13:09:58;;;;;;;4.82;2.90;;;;;;;;;;5074585;28;20158;-81
2021/12/20 13:15:26;;;;;;;2.60;2.05;;;;;;;;;;5064922;28;20033;-80
2021/12/20 13:17:56;;;;;;;4.05;2.42;;;;;;;;;;5074357;28;20066;-79
2021/12/20 13:20:36;;;;;;;3.60;2.55;;;;;;;;;;5074427;28;20055;-81
2021/12/20 13:23:13;;;;;;;2.55;1.85;;;;;;;;;;5073116;28;20028;-80
2021/12/20 13:25:42;;;;;;;4.47;2.72;;;;;;;;;;5073017;28;20024;-78
2021/12/20 13:28:30;;;;;;;4.22;2.20;;;;;;;;;;5072730;28;20133;-79
2021/12/20 13:30:58;;;;;;;4.50;2.70;;;;;;;;;;5072619;28;20081;-81
2021/12/20 13:33:27;;;;;;;3.53;2.47;;;;;;;;;;5073996;28;20036;-80
2021/12/20 13:35:54;;;;;;;5.05;3.28;;;;;;;;;;5070634;28;20032;-79
2021/12/20 13:38:31;;;;;;;3.33;2.42;;;;;;;;;;5072821;28;20108;-80
2021/12/20 13:41:16;;;;;;;3.65;2.65;;;;;;;;;;5072669;28;20127;-79
2021/12/20 13:43:59;;;;;;;3.20;2.15;;;;;;;;;;5073529;28;20028;-81
2021/12/20 13:46:42;;;;;;;7.35;2.88;;;;;;;;;;5069810;28;20036;-80
2021/12/20 13:49:27;;;;;;;4.85;3.38;;;;;;;;;;5073801;28;20103;-79
2021/12/20 13:52:07;;;;;;;2.45;2.25;;;;;;;;;;5073648;28;20042;-81
2021/12/20 13:54:36;;;;;;;3.72;2.60;;;;;;;;;;5073629;28;20025;-80
2021/12/20 13:57:19;;;;;;;3.40;2.78;;;;;;;;;;5070734;28;20144;-78
2021/12/20 14:00:05;;;;;;;5.03;2.83;;;;;;;;;;5073582;28;20479;-80
2021/12/20 14:02:42;;;;;;;3.47;2.67;;;;;;;;;;5067486;28;20032;-82
2021/12/20 14:05:22;;;;;;;7.25;3.95;;;;;;;;;;5070354;28;20372;-80
2021/12/20 14:07:51;;;;;;;4.25;3.15;;;;;;;;;;5070866;28;20034;-81
2021/12/20 14:10:30;;;;;;;5.10;2.72;;;;;;;;;;5073306;28;20043;-80
2021/12/20 14:13:00;;;;;;;4.50;2.78;;;;;;;;;;5073279;28;20123;-79
2021/12/20 14:15:37;;;;;;;4.00;2.78;;;;;;;;;;5072987;28;20020;-81
2021/12/20 14:18:13;;;;;;;4.18;3.05;;;;;;;;;;5072012;28;20490;-81
2021/12/20 14:20:43;;;;;;;6.78;4.28;;;;;;;;;;5069591;28;20037;-82
2021/12/20 14:23:10;;;;;;;4.40;2.85;;;;;;;;;;5071774;28;20028;-81
2021/12/20 14:25:37;;;;;;;4.13;2.95;;;;;;;;;;5071200;28;20575;-80
2021/12/20 14:28:12;;;;;;;5.45;3.40;;;;;;;;;;5073138;28;20073;-81
2021/12/20 14:30:51;;;;;;;3.45;2.70;;;;;;;;;;5073109;28;20040;-81
2021/12/20 14:33:27;;;;;;;3.33;2.20;;;;;;;;;;5071946;28;20028;-79
2021/12/20 14:36:04;;;;;;;3.05;2.00;;;;;;;;;;5071523;28;20076;-79
2021/12/20 14:38:33;;;;;;;6.57;2.42;;;;;;;;;;5071666;28;20376;-80
2021/12/20 14:41:01;;;;;;;4.65;2.78;;;;;;;;;;5066792;28;20077;-80
2021/12/20 14:43:30;;;;;;;4.35;3.70;;;;;;;;;;5072160;28;20020;-80
2021/12/20 14:46:36;;;;;;;3.85;2.85;;;;;;;;;;5072628;28;20074;-80
2021/12/20 14:49:22;;;;;;;4.28;3.50;;;;;;;;;;5071821;28;20480;-79
2021/12/20 14:51:48;;;;;;;2.80;2.50;;;;;;;;;;5072751;28;20518;-81
2021/12/20 14:54:25;;;;;;;3.67;2.67;;;;;;;;;;5072226;28;20021;-81
2021/12/20 14:57:01;;;;;;;5.50;4.13;;;;;;;;;;5072466;28;20078;-78
2021/12/20 14:59:32;;;;;;;4.85;3.33;;;;;;;;;;5072422;28;20121;-80
2021/12/20 15:02:00;;;;;;;4.15;3.10;;;;;;;;;;5070948;28;20574;-80
2021/12/20 15:04:27;;;;;;;4.22;1.98;;;;;;;;;;5072685;28;20048;-79
2021/12/20 15:06:58;;;;;;;4.97;2.58;;;;;;;;;;5071853;28;20571;-81